sensor_id;sensor_type;location;lat;lon;timestamp;pressure;altitude;pressure_sealevel;temperature;humidity
73242;BME280;65659;49.234;-2.094;2023-07-29T00:00:25;99744.23;;;21.00;53.76
73242;BME280;65659;49.234;-2.094;2023-07-29T00:02:51;99742.17;;;20.90;53.96
73242;BME280;65659;49.234;-2.094;2023-07-29T00:05:16;99746.92;;;20.92;53.88
73242;BME280;65659;49.234;-2.094;2023-07-29T00:07:42;99737.19;;;20.60;53.97
73242;BME280;65659;49.234;-2.094;2023-07-29T00:10:08;99733.90;;;20.94;53.82
73242;BME280;65659;49.234;-2.094;2023-07-29T00:12:34;99731.89;;;20.96;53.79
73242;BME280;65659;49.234;-2.094;2023-07-29T00:14:59;99733.16;;;21.06;53.58
73242;BME280;65659;49.234;-2.094;2023-07-29T00:17:25;99728.84;;;21.10;53.56
73242;BME280;65659;49.234;-2.094;2023-07-29T00:19:51;99728.01;;;21.05;53.62
73242;BME280;65659;49.234;-2.094;2023-07-29T00:22:16;99727.89;;;21.29;53.61
73242;BME280;65659;49.234;-2.094;2023-07-29T00:24:42;99727.99;;;21.39;53.54
73242;BME280;65659;49.234;-2.094;2023-07-29T00:27:07;99725.48;;;21.21;53.51
73242;BME280;65659;49.234;-2.094;2023-07-29T00:29:33;99725.85;;;21.22;53.65
73242;BME280;65659;49.234;-2.094;2023-07-29T00:31:59;99718.95;;;21.27;53.69
73242;BME280;65659;49.234;-2.094;2023-07-29T00:34:24;99720.51;;;21.50;53.76
73242;BME280;65659;49.234;-2.094;2023-07-29T00:36:51;99718.72;;;21.28;53.86
73242;BME280;65659;49.234;-2.094;2023-07-29T00:39:16;99720.05;;;20.87;54.19
73242;BME280;65659;49.234;-2.094;2023-07-29T00:41:42;99717.11;;;20.87;54.30
73242;BME280;65659;49.234;-2.094;2023-07-29T00:44:08;99714.33;;;20.92;54.36
73242;BME280;65659;49.234;-2.094;2023-07-29T00:46:34;99718.53;;;20.95;54.69
73242;BME280;65659;49.234;-2.094;2023-07-29T00:48:59;99712.21;;;20.87;54.89
73242;BME280;65659;49.234;-2.094;2023-07-29T00:51:25;99715.90;;;20.76;55.06
73242;BME280;65659;49.234;-2.094;2023-07-29T00:53:50;99719.76;;;20.88;55.27
73242;BME280;65659;49.234;-2.094;2023-07-29T00:56:16;99715.18;;;20.67;55.28
73242;BME280;65659;49.234;-2.094;2023-07-29T00:58:43;99709.76;;;20.49;55.65
73242;BME280;65659;49.234;-2.094;2023-07-29T01:01:07;99709.02;;;20.24;55.89
73242;BME280;65659;49.234;-2.094;2023-07-29T01:03:33;99718.81;;;20.37;56.10
73242;BME280;65659;49.234;-2.094;2023-07-29T01:06:08;99711.52;;;20.47;55.97
73242;BME280;65659;49.234;-2.094;2023-07-29T01:08:31;99714.08;;;20.51;56.44
73242;BME280;65659;49.234;-2.094;2023-07-29T01:10:58;99712.81;;;20.34;56.82
73242;BME280;65659;49.234;-2.094;2023-07-29T01:13:19;99714.05;;;20.66;57.18
73242;BME280;65659;49.234;-2.094;2023-07-29T01:15:45;99718.91;;;20.30;57.55
73242;BME280;65659;49.234;-2.094;2023-07-29T01:18:11;99714.59;;;19.97;57.92
73242;BME280;65659;49.234;-2.094;2023-07-29T01:20:33;99704.89;;;20.02;58.29
73242;BME280;65659;49.234;-2.094;2023-07-29T01:22:58;99706.14;;;19.74;58.26
73242;BME280;65659;49.234;-2.094;2023-07-29T01:25:24;99699.68;;;19.89;58.50
73242;BME280;65659;49.234;-2.094;2023-07-29T01:27:51;99697.57;;;19.98;58.38
73242;BME280;65659;49.234;-2.094;2023-07-29T01:30:21;99702.82;;;20.23;58.33
73242;BME280;65659;49.234;-2.094;2023-07-29T01:32:44;99694.80;;;20.10;58.37
73242;BME280;65659;49.234;-2.094;2023-07-29T01:35:15;99692.80;;;19.82;58.47
73242;BME280;65659;49.234;-2.094;2023-07-29T01:37:34;99692.79;;;20.33;58.50
73242;BME280;65659;49.234;-2.094;2023-07-29T01:40:00;99693.41;;;20.32;58.52
73242;BME280;65659;49.234;-2.094;2023-07-29T01:42:24;99694.04;;;20.37;58.49
73242;BME280;65659;49.234;-2.094;2023-07-29T01:44:50;99693.82;;;20.16;58.51
73242;BME280;65659;49.234;-2.094;2023-07-29T01:47:16;99691.39;;;20.24;58.41
73242;BME280;65659;49.234;-2.094;2023-07-29T01:49:41;99685.10;;;19.90;58.64
73242;BME280;65659;49.234;-2.094;2023-07-29T01:52:07;99697.73;;;20.08;58.78
73242;BME280;65659;49.234;-2.094;2023-07-29T01:54:33;99692.75;;;20.26;58.96
73242;BME280;65659;49.234;-2.094;2023-07-29T01:56:59;99700.32;;;20.33;58.89
73242;BME280;65659;49.234;-2.094;2023-07-29T01:59:24;99698.57;;;20.33;58.87
73242;BME280;65659;49.234;-2.094;2023-07-29T02:01:50;99709.08;;;20.32;58.85
73242;BME280;65659;49.234;-2.094;2023-07-29T02:04:16;99702.95;;;20.32;58.83
73242;BME280;65659;49.234;-2.094;2023-07-29T02:06:41;99704.04;;;20.32;58.80
73242;BME280;65659;49.234;-2.094;2023-07-29T02:09:07;99702.33;;;20.34;58.75
73242;BME280;65659;49.234;-2.094;2023-07-29T02:11:34;99700.43;;;20.09;58.82
73242;BME280;65659;49.234;-2.094;2023-07-29T02:13:58;99703.86;;;20.13;58.79
73242;BME280;65659;49.234;-2.094;2023-07-29T02:16:24;99702.46;;;20.28;58.44
73242;BME280;65659;49.234;-2.094;2023-07-29T02:18:50;99695.42;;;20.31;58.34
73242;BME280;65659;49.234;-2.094;2023-07-29T02:21:16;99691.51;;;20.32;58.26
73242;BME280;65659;49.234;-2.094;2023-07-29T02:23:41;99693.39;;;20.23;58.38
73242;BME280;65659;49.234;-2.094;2023-07-29T02:26:07;99688.23;;;20.43;58.43
73242;BME280;65659;49.234;-2.094;2023-07-29T02:28:32;99687.06;;;20.19;58.36
73242;BME280;65659;49.234;-2.094;2023-07-29T02:31:09;99689.41;;;20.23;58.28
73242;BME280;65659;49.234;-2.094;2023-07-29T02:33:24;99689.76;;;20.51;58.19
73242;BME280;65659;49.234;-2.094;2023-07-29T02:35:50;99693.09;;;20.35;57.98
73242;BME280;65659;49.234;-2.094;2023-07-29T02:38:15;99694.79;;;20.56;57.98
73242;BME280;65659;49.234;-2.094;2023-07-29T02:40:41;99693.29;;;20.49;58.22
73242;BME280;65659;49.234;-2.094;2023-07-29T02:43:06;99693.95;;;20.28;58.12
73242;BME280;65659;49.234;-2.094;2023-07-29T02:45:32;99686.90;;;20.34;58.01
73242;BME280;65659;49.234;-2.094;2023-07-29T02:47:58;99686.63;;;20.33;57.99
73242;BME280;65659;49.234;-2.094;2023-07-29T02:50:24;99690.31;;;20.54;58.13
73242;BME280;65659;49.234;-2.094;2023-07-29T02:52:49;99690.55;;;20.32;57.96
73242;BME280;65659;49.234;-2.094;2023-07-29T02:55:15;99688.20;;;20.33;58.02
73242;BME280;65659;49.234;-2.094;2023-07-29T02:57:40;99679.41;;;20.31;58.10
73242;BME280;65659;49.234;-2.094;2023-07-29T03:00:07;99677.73;;;20.14;57.97
73242;BME280;65659;49.234;-2.094;2023-07-29T03:02:32;99677.72;;;20.46;57.85
73242;BME280;65659;49.234;-2.094;2023-07-29T03:04:58;99678.85;;;20.59;58.02
73242;BME280;65659;49.234;-2.094;2023-07-29T03:07:23;99678.61;;;20.53;58.21
73242;BME280;65659;49.234;-2.094;2023-07-29T03:09:49;99681.12;;;20.47;58.26
73242;BME280;65659;49.234;-2.094;2023-07-29T03:12:15;99677.53;;;20.59;58.08
73242;BME280;65659;49.234;-2.094;2023-07-29T03:14:40;99672.48;;;20.51;58.25
73242;BME280;65659;49.234;-2.094;2023-07-29T03:17:06;99677.28;;;20.43;58.03
73242;BME280;65659;49.234;-2.094;2023-07-29T03:19:32;99678.91;;;20.36;58.15
73242;BME280;65659;49.234;-2.094;2023-07-29T03:21:57;99690.18;;;20.11;58.24
73242;BME280;65659;49.234;-2.094;2023-07-29T03:24:23;99686.42;;;20.71;58.01
73242;BME280;65659;49.234;-2.094;2023-07-29T03:26:49;99669.61;;;20.59;57.67
73242;BME280;65659;49.234;-2.094;2023-07-29T03:29:15;99682.63;;;20.29;57.81
73242;BME280;65659;49.234;-2.094;2023-07-29T03:31:40;99673.58;;;20.60;57.66
73242;BME280;65659;49.234;-2.094;2023-07-29T03:34:06;99672.75;;;20.32;57.68
73242;BME280;65659;49.234;-2.094;2023-07-29T03:36:32;99678.10;;;20.76;57.79
73242;BME280;65659;49.234;-2.094;2023-07-29T03:38:57;99677.62;;;20.58;57.65
73242;BME280;65659;49.234;-2.094;2023-07-29T03:41:23;99679.26;;;20.73;57.80
73242;BME280;65659;49.234;-2.094;2023-07-29T03:46:15;99691.30;;;20.30;57.63
73242;BME280;65659;49.234;-2.094;2023-07-29T03:48:40;99690.09;;;20.51;57.68
73242;BME280;65659;49.234;-2.094;2023-07-29T03:51:06;99692.64;;;20.48;57.74
73242;BME280;65659;49.234;-2.094;2023-07-29T03:55:57;99684.96;;;20.64;57.87
73242;BME280;65659;49.234;-2.094;2023-07-29T03:58:23;99689.26;;;20.59;57.94
73242;BME280;65659;49.234;-2.094;2023-07-29T04:00:48;99692.78;;;20.43;57.77
73242;BME280;65659;49.234;-2.094;2023-07-29T04:03:14;99691.13;;;20.59;57.83
73242;BME280;65659;49.234;-2.094;2023-07-29T04:05:40;99691.66;;;20.36;57.81
73242;BME280;65659;49.234;-2.094;2023-07-29T04:08:05;99695.38;;;20.29;57.99
73242;BME280;65659;49.234;-2.094;2023-07-29T04:10:31;99698.45;;;20.07;58.00
73242;BME280;65659;49.234;-2.094;2023-07-29T04:12:57;99701.55;;;20.10;57.86
73242;BME280;65659;49.234;-2.094;2023-07-29T04:15:22;99701.63;;;20.60;57.90
73242;BME280;65659;49.234;-2.094;2023-07-29T04:17:48;99702.96;;;20.35;57.96
73242;BME280;65659;49.234;-2.094;2023-07-29T04:20:14;99703.70;;;20.33;58.01
73242;BME280;65659;49.234;-2.094;2023-07-29T04:22:39;99701.63;;;20.22;57.80
73242;BME280;65659;49.234;-2.094;2023-07-29T04:25:06;99703.70;;;20.27;57.60
73242;BME280;65659;49.234;-2.094;2023-07-29T04:27:31;99703.21;;;20.77;57.58
73242;BME280;65659;49.234;-2.094;2023-07-29T04:32:22;99698.25;;;20.60;57.80
73242;BME280;65659;49.234;-2.094;2023-07-29T04:34:48;99697.10;;;20.47;57.58
73242;BME280;65659;49.234;-2.094;2023-07-29T04:37:13;99701.85;;;20.37;57.79
73242;BME280;65659;49.234;-2.094;2023-07-29T04:39:39;99699.67;;;20.52;57.97
73242;BME280;65659;49.234;-2.094;2023-07-29T04:42:05;99697.96;;;19.90;58.31
73242;BME280;65659;49.234;-2.094;2023-07-29T04:44:30;99692.03;;;20.30;58.45
73242;BME280;65659;49.234;-2.094;2023-07-29T04:46:56;99694.85;;;20.24;58.36
73242;BME280;65659;49.234;-2.094;2023-07-29T04:49:22;99698.83;;;19.93;58.57
73242;BME280;65659;49.234;-2.094;2023-07-29T04:51:49;99697.83;;;20.23;58.53
73242;BME280;65659;49.234;-2.094;2023-07-29T04:54:13;99696.72;;;20.10;58.34
73242;BME280;65659;49.234;-2.094;2023-07-29T04:56:39;99697.49;;;20.01;58.37
73242;BME280;65659;49.234;-2.094;2023-07-29T04:59:05;99706.21;;;20.06;58.56
73242;BME280;65659;49.234;-2.094;2023-07-29T05:01:31;99705.36;;;19.97;58.67
73242;BME280;65659;49.234;-2.094;2023-07-29T05:03:58;99706.84;;;19.89;58.85
73242;BME280;65659;49.234;-2.094;2023-07-29T05:06:22;99712.96;;;19.92;58.76
73242;BME280;65659;49.234;-2.094;2023-07-29T05:08:48;99708.98;;;19.69;58.71
73242;BME280;65659;49.234;-2.094;2023-07-29T05:11:13;99706.37;;;19.77;58.60
73242;BME280;65659;49.234;-2.094;2023-07-29T05:13:39;99706.32;;;19.80;58.93
73242;BME280;65659;49.234;-2.094;2023-07-29T05:16:05;99713.55;;;19.71;59.12
73242;BME280;65659;49.234;-2.094;2023-07-29T05:18:30;99707.46;;;19.61;59.23
73242;BME280;65659;49.234;-2.094;2023-07-29T05:20:56;99715.35;;;19.50;59.39
73242;BME280;65659;49.234;-2.094;2023-07-29T05:23:22;99713.43;;;19.62;59.02
73242;BME280;65659;49.234;-2.094;2023-07-29T05:25:48;99708.96;;;19.87;58.96
73242;BME280;65659;49.234;-2.094;2023-07-29T05:30:39;99715.91;;;19.52;58.77
73242;BME280;65659;49.234;-2.094;2023-07-29T05:33:05;99717.38;;;19.50;58.42
73242;BME280;65659;49.234;-2.094;2023-07-29T05:37:57;99720.31;;;19.33;58.68
73242;BME280;65659;49.234;-2.094;2023-07-29T05:40:22;99720.12;;;19.10;58.69
73242;BME280;65659;49.234;-2.094;2023-07-29T05:42:47;99720.15;;;19.59;58.69
73242;BME280;65659;49.234;-2.094;2023-07-29T05:45:13;99719.12;;;19.60;58.77
73242;BME280;65659;49.234;-2.094;2023-07-29T05:47:39;99721.99;;;19.43;58.62
73242;BME280;65659;49.234;-2.094;2023-07-29T05:50:05;99727.35;;;19.55;58.42
73242;BME280;65659;49.234;-2.094;2023-07-29T05:52:30;99727.71;;;19.87;58.28
73242;BME280;65659;49.234;-2.094;2023-07-29T05:54:56;99728.05;;;19.53;58.43
73242;BME280;65659;49.234;-2.094;2023-07-29T05:57:21;99728.59;;;19.36;58.73
73242;BME280;65659;49.234;-2.094;2023-07-29T05:59:48;99733.52;;;19.21;58.94
73242;BME280;65659;49.234;-2.094;2023-07-29T06:02:13;99735.36;;;18.88;58.87
73242;BME280;65659;49.234;-2.094;2023-07-29T06:04:38;99735.63;;;19.42;58.84
73242;BME280;65659;49.234;-2.094;2023-07-29T06:07:05;99735.19;;;19.38;58.85
73242;BME280;65659;49.234;-2.094;2023-07-29T06:09:30;99739.34;;;19.50;58.65
73242;BME280;65659;49.234;-2.094;2023-07-29T06:11:55;99753.89;;;19.12;58.74
73242;BME280;65659;49.234;-2.094;2023-07-29T06:14:21;99748.00;;;19.32;58.42
73242;BME280;65659;49.234;-2.094;2023-07-29T06:16:47;99751.98;;;19.49;58.48
73242;BME280;65659;49.234;-2.094;2023-07-29T06:19:12;99749.20;;;19.61;58.26
73242;BME280;65659;49.234;-2.094;2023-07-29T06:21:38;99751.41;;;19.46;58.16
73242;BME280;65659;49.234;-2.094;2023-07-29T06:24:04;99751.17;;;19.51;58.06
73242;BME280;65659;49.234;-2.094;2023-07-29T06:26:30;99748.34;;;19.58;57.77
73242;BME280;65659;49.234;-2.094;2023-07-29T06:28:55;99753.83;;;19.58;57.64
73242;BME280;65659;49.234;-2.094;2023-07-29T06:31:21;99758.26;;;19.56;57.59
73242;BME280;65659;49.234;-2.094;2023-07-29T06:33:47;99756.97;;;19.50;57.57
73242;BME280;65659;49.234;-2.094;2023-07-29T06:36:12;99756.89;;;19.81;57.36
73242;BME280;65659;49.234;-2.094;2023-07-29T06:38:38;99757.96;;;19.65;57.34
73242;BME280;65659;49.234;-2.094;2023-07-29T06:41:03;99756.31;;;19.74;57.18
73242;BME280;65659;49.234;-2.094;2023-07-29T06:43:29;99756.86;;;19.61;57.30
73242;BME280;65659;49.234;-2.094;2023-07-29T06:45:55;99763.61;;;19.60;57.48
73242;BME280;65659;49.234;-2.094;2023-07-29T06:48:20;99766.94;;;19.62;57.42
73242;BME280;65659;49.234;-2.094;2023-07-29T06:50:46;99771.92;;;19.95;57.30
73242;BME280;65659;49.234;-2.094;2023-07-29T06:53:12;99771.02;;;20.00;57.03
73242;BME280;65659;49.234;-2.094;2023-07-29T06:55:37;99776.08;;;19.76;57.08
73242;BME280;65659;49.234;-2.094;2023-07-29T06:58:03;99771.71;;;19.52;56.90
73242;BME280;65659;49.234;-2.094;2023-07-29T07:00:29;99777.72;;;19.76;56.68
73242;BME280;65659;49.234;-2.094;2023-07-29T07:02:54;99774.98;;;19.62;56.91
73242;BME280;65659;49.234;-2.094;2023-07-29T07:05:21;99779.62;;;19.86;56.65
73242;BME280;65659;49.234;-2.094;2023-07-29T07:07:46;99781.91;;;19.78;56.36
73242;BME280;65659;49.234;-2.094;2023-07-29T07:10:11;99788.45;;;19.73;56.46
73242;BME280;65659;49.234;-2.094;2023-07-29T07:12:37;99791.27;;;20.07;56.31
73242;BME280;65659;49.234;-2.094;2023-07-29T07:15:03;99782.26;;;19.83;56.11
73242;BME280;65659;49.234;-2.094;2023-07-29T07:17:28;99777.10;;;20.05;55.86
73242;BME280;65659;49.234;-2.094;2023-07-29T07:19:54;99784.03;;;19.85;55.77
73242;BME280;65659;49.234;-2.094;2023-07-29T07:22:20;99786.20;;;19.99;55.50
73242;BME280;65659;49.234;-2.094;2023-07-29T07:24:45;99793.60;;;20.36;55.48
73242;BME280;65659;49.234;-2.094;2023-07-29T07:27:12;99799.09;;;20.47;55.26
73242;BME280;65659;49.234;-2.094;2023-07-29T07:29:37;99802.46;;;20.74;55.16
73242;BME280;65659;49.234;-2.094;2023-07-29T07:32:03;99800.35;;;20.39;55.22
73242;BME280;65659;49.234;-2.094;2023-07-29T07:34:28;99799.63;;;20.75;54.87
73242;BME280;65659;49.234;-2.094;2023-07-29T07:36:58;99790.31;;;20.78;54.53
73242;BME280;65659;49.234;-2.094;2023-07-29T07:39:19;99794.27;;;20.33;54.24
73242;BME280;65659;49.234;-2.094;2023-07-29T07:41:45;99804.47;;;20.68;54.21
73242;BME280;65659;49.234;-2.094;2023-07-29T07:44:11;99802.74;;;20.35;54.09
73242;BME280;65659;49.234;-2.094;2023-07-29T07:46:36;99808.44;;;20.93;54.16
73242;BME280;65659;49.234;-2.094;2023-07-29T07:49:02;99809.38;;;20.49;53.55
73242;BME280;65659;49.234;-2.094;2023-07-29T07:53:53;99812.87;;;20.73;53.30
73242;BME280;65659;49.234;-2.094;2023-07-29T07:56:19;99811.77;;;20.85;53.13
73242;BME280;65659;49.234;-2.094;2023-07-29T07:58:44;99810.89;;;20.83;52.99
73242;BME280;65659;49.234;-2.094;2023-07-29T08:01:11;99814.51;;;20.97;52.90
73242;BME280;65659;49.234;-2.094;2023-07-29T08:03:36;99818.00;;;20.84;52.94
73242;BME280;65659;49.234;-2.094;2023-07-29T08:06:01;99811.70;;;20.87;52.83
73242;BME280;65659;49.234;-2.094;2023-07-29T08:08:27;99811.41;;;21.00;52.51
73242;BME280;65659;49.234;-2.094;2023-07-29T08:10:53;99812.90;;;21.14;52.12
73242;BME280;65659;49.234;-2.094;2023-07-29T08:13:17;99814.04;;;21.39;51.71
73242;BME280;65659;49.234;-2.094;2023-07-29T08:15:46;99812.86;;;21.11;51.88
73242;BME280;65659;49.234;-2.094;2023-07-29T08:18:08;99821.43;;;21.40;51.94
73242;BME280;65659;49.234;-2.094;2023-07-29T08:20:34;99820.82;;;21.41;51.40
73242;BME280;65659;49.234;-2.094;2023-07-29T08:22:59;99831.99;;;21.35;51.54
73242;BME280;65659;49.234;-2.094;2023-07-29T08:25:25;99822.12;;;21.43;51.32
73242;BME280;65659;49.234;-2.094;2023-07-29T08:27:51;99831.53;;;21.27;50.70
73242;BME280;65659;49.234;-2.094;2023-07-29T08:30:16;99831.68;;;21.19;50.57
73242;BME280;65659;49.234;-2.094;2023-07-29T08:32:42;99834.45;;;21.27;50.98
73242;BME280;65659;49.234;-2.094;2023-07-29T08:37:34;99844.63;;;21.17;51.18
73242;BME280;65659;49.234;-2.094;2023-07-29T08:39:58;99842.55;;;21.60;51.13
73242;BME280;65659;49.234;-2.094;2023-07-29T08:42:28;99844.47;;;21.42;50.58
73242;BME280;65659;49.234;-2.094;2023-07-29T08:44:52;99848.47;;;21.23;50.56
73242;BME280;65659;49.234;-2.094;2023-07-29T08:47:15;99844.58;;;21.45;49.79
73242;BME280;65659;49.234;-2.094;2023-07-29T08:49:41;99844.69;;;21.49;49.63
73242;BME280;65659;49.234;-2.094;2023-07-29T08:52:07;99852.03;;;21.48;50.31
73242;BME280;65659;49.234;-2.094;2023-07-29T08:54:32;99846.12;;;21.48;49.54
73242;BME280;65659;49.234;-2.094;2023-07-29T08:56:58;99847.77;;;21.49;49.24
73242;BME280;65659;49.234;-2.094;2023-07-29T08:59:23;99842.36;;;21.47;48.97
73242;BME280;65659;49.234;-2.094;2023-07-29T09:01:49;99846.64;;;21.85;48.80
73242;BME280;65659;49.234;-2.094;2023-07-29T09:04:15;99848.45;;;21.44;48.82
73242;BME280;65659;49.234;-2.094;2023-07-29T09:06:43;99855.69;;;22.05;48.84
73242;BME280;65659;49.234;-2.094;2023-07-29T09:09:07;99857.05;;;21.93;48.88
73242;BME280;65659;49.234;-2.094;2023-07-29T09:11:33;99855.98;;;21.92;48.74
73242;BME280;65659;49.234;-2.094;2023-07-29T09:13:57;99856.03;;;21.42;48.43
73242;BME280;65659;49.234;-2.094;2023-07-29T09:16:23;99848.57;;;21.88;48.31
73242;BME280;65659;49.234;-2.094;2023-07-29T09:18:48;99851.29;;;21.82;48.66
73242;BME280;65659;49.234;-2.094;2023-07-29T09:21:16;99852.58;;;21.96;48.37
73242;BME280;65659;49.234;-2.094;2023-07-29T09:23:40;99853.66;;;21.95;48.32
73242;BME280;65659;49.234;-2.094;2023-07-29T09:26:05;99854.11;;;22.15;48.19
73242;BME280;65659;49.234;-2.094;2023-07-29T09:28:34;99858.49;;;22.16;48.04
73242;BME280;65659;49.234;-2.094;2023-07-29T09:30:56;99862.79;;;21.83;47.54
73242;BME280;65659;49.234;-2.094;2023-07-29T09:33:25;99861.93;;;22.09;47.49
73242;BME280;65659;49.234;-2.094;2023-07-29T09:35:48;99860.18;;;22.08;47.45
73242;BME280;65659;49.234;-2.094;2023-07-29T09:38:15;99859.28;;;21.96;47.26
73242;BME280;65659;49.234;-2.094;2023-07-29T09:40:40;99857.60;;;22.31;47.22
73242;BME280;65659;49.234;-2.094;2023-07-29T09:43:06;99857.41;;;22.40;47.78
73242;BME280;65659;49.234;-2.094;2023-07-29T09:45:31;99859.66;;;22.41;46.90
73242;BME280;65659;49.234;-2.094;2023-07-29T09:47:57;99858.84;;;22.32;47.10
73242;BME280;65659;49.234;-2.094;2023-07-29T09:50:24;99858.76;;;22.38;46.94
73242;BME280;65659;49.234;-2.094;2023-07-29T09:52:47;99862.37;;;22.24;47.00
73242;BME280;65659;49.234;-2.094;2023-07-29T09:55:13;99860.50;;;22.63;46.29
73242;BME280;65659;49.234;-2.094;2023-07-29T09:57:39;99853.48;;;22.55;45.87
73242;BME280;65659;49.234;-2.094;2023-07-29T10:00:05;99861.82;;;22.50;45.77
73242;BME280;65659;49.234;-2.094;2023-07-29T10:02:30;99861.78;;;22.67;45.28
73242;BME280;65659;49.234;-2.094;2023-07-29T10:04:55;99870.69;;;22.76;45.01
73242;BME280;65659;49.234;-2.094;2023-07-29T10:07:21;99874.87;;;23.08;45.05
73242;BME280;65659;49.234;-2.094;2023-07-29T10:09:47;99875.27;;;22.78;45.07
73242;BME280;65659;49.234;-2.094;2023-07-29T10:12:13;99882.38;;;22.91;45.37
73242;BME280;65659;49.234;-2.094;2023-07-29T10:14:38;99880.74;;;22.96;45.18
73242;BME280;65659;49.234;-2.094;2023-07-29T10:17:04;99881.68;;;23.38;44.60
73242;BME280;65659;49.234;-2.094;2023-07-29T10:19:29;99882.29;;;23.21;44.31
73242;BME280;65659;49.234;-2.094;2023-07-29T10:21:57;99883.49;;;23.44;44.45
73242;BME280;65659;49.234;-2.094;2023-07-29T10:24:21;99887.55;;;23.10;44.82
73242;BME280;65659;49.234;-2.094;2023-07-29T10:26:46;99882.95;;;23.05;44.54
73242;BME280;65659;49.234;-2.094;2023-07-29T10:29:12;99890.81;;;23.18;44.51
73242;BME280;65659;49.234;-2.094;2023-07-29T10:31:35;99887.41;;;23.50;44.46
73242;BME280;65659;49.234;-2.094;2023-07-29T10:34:01;99888.85;;;23.37;44.34
73242;BME280;65659;49.234;-2.094;2023-07-29T10:36:27;99882.66;;;23.18;43.55
73242;BME280;65659;49.234;-2.094;2023-07-29T10:38:58;99887.64;;;23.13;43.25
73242;BME280;65659;49.234;-2.094;2023-07-29T10:41:18;99892.45;;;23.49;43.42
73242;BME280;65659;49.234;-2.094;2023-07-29T10:43:43;99896.32;;;23.76;42.87
73242;BME280;65659;49.234;-2.094;2023-07-29T10:46:16;99899.91;;;23.44;42.54
73242;BME280;65659;49.234;-2.094;2023-07-29T10:53:30;99904.77;;;23.29;42.44
73242;BME280;65659;49.234;-2.094;2023-07-29T10:55:52;99895.20;;;23.12;42.74
73242;BME280;65659;49.234;-2.094;2023-07-29T10:58:17;99892.40;;;23.66;42.81
73242;BME280;65659;49.234;-2.094;2023-07-29T11:00:43;99894.46;;;23.46;42.84
73242;BME280;65659;49.234;-2.094;2023-07-29T11:03:09;99894.70;;;23.96;41.97
73242;BME280;65659;49.234;-2.094;2023-07-29T11:05:45;99897.02;;;23.67;42.22
73242;BME280;65659;49.234;-2.094;2023-07-29T11:10:25;99892.88;;;23.43;42.03
73242;BME280;65659;49.234;-2.094;2023-07-29T11:12:51;99899.90;;;23.33;42.21
73242;BME280;65659;49.234;-2.094;2023-07-29T11:15:18;99905.45;;;23.40;42.58
73242;BME280;65659;49.234;-2.094;2023-07-29T11:17:44;99899.06;;;23.77;41.75
73242;BME280;65659;49.234;-2.094;2023-07-29T11:20:08;99904.53;;;23.60;42.13
73242;BME280;65659;49.234;-2.094;2023-07-29T11:22:33;99909.37;;;23.60;41.90
73242;BME280;65659;49.234;-2.094;2023-07-29T11:24:58;99912.54;;;24.28;41.68
73242;BME280;65659;49.234;-2.094;2023-07-29T11:27:24;99907.19;;;24.17;41.33
73242;BME280;65659;49.234;-2.094;2023-07-29T11:29:49;99908.44;;;24.21;41.52
73242;BME280;65659;49.234;-2.094;2023-07-29T11:32:16;99915.16;;;24.18;41.29
73242;BME280;65659;49.234;-2.094;2023-07-29T11:34:41;99917.05;;;24.37;41.29
73242;BME280;65659;49.234;-2.094;2023-07-29T11:37:06;99918.59;;;24.09;41.24
73242;BME280;65659;49.234;-2.094;2023-07-29T11:39:32;99922.65;;;24.46;41.90
73242;BME280;65659;49.234;-2.094;2023-07-29T11:41:58;99927.68;;;23.81;42.18
73242;BME280;65659;49.234;-2.094;2023-07-29T11:44:23;99927.76;;;23.90;42.74
73242;BME280;65659;49.234;-2.094;2023-07-29T11:46:49;99924.28;;;23.49;43.23
73242;BME280;65659;49.234;-2.094;2023-07-29T11:49:15;99927.43;;;23.87;43.29
73242;BME280;65659;49.234;-2.094;2023-07-29T11:51:41;99929.63;;;24.02;43.23
73242;BME280;65659;49.234;-2.094;2023-07-29T11:54:05;99929.25;;;24.02;42.62
73242;BME280;65659;49.234;-2.094;2023-07-29T11:56:32;99931.82;;;24.13;41.45
73242;BME280;65659;49.234;-2.094;2023-07-29T11:58:56;99933.72;;;24.29;41.18
73242;BME280;65659;49.234;-2.094;2023-07-29T12:01:23;99931.40;;;24.16;41.08
73242;BME280;65659;49.234;-2.094;2023-07-29T12:03:49;99930.55;;;24.31;40.64
73242;BME280;65659;49.234;-2.094;2023-07-29T12:06:14;99932.98;;;23.83;40.73
73242;BME280;65659;49.234;-2.094;2023-07-29T12:08:39;99931.89;;;23.87;40.99
73242;BME280;65659;49.234;-2.094;2023-07-29T12:11:05;99938.72;;;23.96;41.09
73242;BME280;65659;49.234;-2.094;2023-07-29T12:13:30;99935.42;;;23.82;41.01
73242;BME280;65659;49.234;-2.094;2023-07-29T12:16:01;99936.56;;;23.76;41.47
73242;BME280;65659;49.234;-2.094;2023-07-29T12:18:29;99941.33;;;23.98;41.91
73242;BME280;65659;49.234;-2.094;2023-07-29T12:20:47;99933.94;;;23.88;42.31
73242;BME280;65659;49.234;-2.094;2023-07-29T12:23:13;99925.78;;;23.70;42.16
73242;BME280;65659;49.234;-2.094;2023-07-29T12:25:39;99937.04;;;23.83;42.46
73242;BME280;65659;49.234;-2.094;2023-07-29T12:28:05;99936.23;;;24.25;42.35
73242;BME280;65659;49.234;-2.094;2023-07-29T12:30:30;99934.39;;;24.34;42.32
73242;BME280;65659;49.234;-2.094;2023-07-29T12:32:56;99940.20;;;24.05;42.49
73242;BME280;65659;49.234;-2.094;2023-07-29T12:35:21;99938.07;;;24.27;42.12
73242;BME280;65659;49.234;-2.094;2023-07-29T12:37:47;99947.81;;;24.15;42.25
73242;BME280;65659;49.234;-2.094;2023-07-29T12:40:22;99946.83;;;23.78;43.02
73242;BME280;65659;49.234;-2.094;2023-07-29T12:42:40;99948.68;;;23.48;43.02
73242;BME280;65659;49.234;-2.094;2023-07-29T12:45:05;99952.92;;;23.16;43.35
73242;BME280;65659;49.234;-2.094;2023-07-29T12:47:29;99951.32;;;23.22;43.61
73242;BME280;65659;49.234;-2.094;2023-07-29T12:49:55;99956.49;;;23.02;44.44
73242;BME280;65659;49.234;-2.094;2023-07-29T12:52:21;99962.75;;;23.01;44.54
73242;BME280;65659;49.234;-2.094;2023-07-29T12:54:46;99959.12;;;22.58;44.31
73242;BME280;65659;49.234;-2.094;2023-07-29T12:57:12;99975.44;;;22.55;44.36
73242;BME280;65659;49.234;-2.094;2023-07-29T12:59:38;99973.39;;;22.75;44.77
73242;BME280;65659;49.234;-2.094;2023-07-29T13:02:04;99973.38;;;22.13;45.33
73242;BME280;65659;49.234;-2.094;2023-07-29T13:04:29;99976.60;;;22.27;45.47